Greenacres, Washington
Current Conditions -  °F | °C
As of 7:53 PM on Wednesday 24 Dec 2014 (Local Time) from KSFF Reporting Station
Few Clouds Few Clouds  
Wind Chill: 37°   Ceiling: Unl
Heat Index: 37°   Visibility: 10mi
Dew Point: 34°   Wind: 3mph
Humidity: 89%   Direction: 270°W
Pressure: 29.72"   Gusts: NA
Location:  47.67°N, 117.16°W
Report Text: KSFF 250353Z AUTO 27003KT 10SM FEW120 03/01 A2972 RMK AO2 SLP076 T00280011
Loading
Personal Weather Stations






























Interactive Weather Map New forecast layout! Learn more

10-Day Weather Forecast

Advertisements
Track Severe Weather on mobile